createdAt,value
2017-06-05T00:01:45.197Z,4.03
2017-06-05T00:04:12.738Z,3.83
2017-06-05T00:06:41.027Z,4.13
2017-06-05T00:09:08.576Z,4.20
2017-06-05T00:11:36.873Z,3.30
2017-06-05T00:14:04.443Z,4.17
2017-06-05T00:16:31.967Z,5.00
2017-06-05T00:19:00.263Z,4.80
2017-06-05T00:21:27.808Z,5.70
2017-06-05T00:23:56.096Z,4.97
2017-06-05T00:26:23.643Z,4.17
2017-06-05T00:28:51.931Z,4.53
2017-06-05T00:31:20.243Z,4.10
2017-06-05T00:33:47.769Z,3.90
2017-06-05T00:36:15.341Z,3.97
2017-06-05T00:38:42.871Z,5.30
2017-06-05T00:41:11.167Z,4.90
2017-06-05T00:43:38.721Z,4.93
2017-06-05T00:46:06.251Z,4.43
2017-06-05T00:48:33.791Z,4.60
2017-06-05T00:51:01.315Z,3.60
2017-06-05T00:53:28.852Z,3.20
2017-06-05T00:55:56.379Z,3.80
2017-06-05T00:58:23.949Z,3.90
2017-06-05T01:00:51.471Z,4.10
2017-06-05T01:03:19.767Z,3.40
2017-06-05T01:05:47.314Z,2.90
2017-06-05T01:08:15.606Z,3.33
2017-06-05T01:10:43.152Z,3.20
2017-06-05T01:13:10.678Z,3.63
2017-06-05T01:15:38.218Z,2.70
2017-06-05T01:18:05.744Z,3.40
2017-06-05T01:20:33.266Z,3.83
2017-06-05T01:23:00.806Z,3.80
2017-06-05T01:25:28.331Z,3.87
2017-06-05T01:27:55.876Z,3.63
2017-06-05T01:30:23.408Z,3.30
2017-06-05T01:32:50.950Z,3.00
2017-06-05T01:35:18.479Z,3.73
2017-06-05T01:37:46.048Z,4.10
2017-06-05T01:40:13.601Z,3.57
2017-06-05T01:42:41.135Z,3.23
2017-06-05T01:45:08.683Z,4.70
2017-06-05T01:47:36.212Z,4.90
2017-06-05T01:50:03.769Z,5.40
2017-06-05T01:52:31.294Z,4.97
2017-06-05T01:54:59.591Z,4.40
2017-06-05T01:57:27.136Z,4.30
2017-06-05T01:59:54.660Z,3.80
2017-06-05T02:02:22.213Z,3.20
2017-06-05T02:04:49.747Z,3.50
2017-06-05T02:07:17.293Z,3.33
2017-06-05T02:09:44.828Z,3.77
2017-06-05T02:12:13.141Z,3.80
2017-06-05T02:14:40.672Z,4.73
2017-06-05T02:17:08.199Z,3.60
2017-06-05T02:19:35.751Z,5.40
2017-06-05T02:22:03.282Z,4.00
2017-06-05T02:24:30.831Z,4.63
2017-06-05T02:26:58.355Z,4.10
2017-06-05T02:29:25.903Z,5.50
2017-06-05T02:31:53.436Z,5.63
2017-06-05T02:34:20.984Z,5.40
2017-06-05T02:36:48.543Z,4.30
2017-06-05T02:39:16.068Z,5.13
2017-06-05T02:41:43.618Z,4.10
2017-06-05T02:44:11.149Z,3.30
2017-06-05T02:46:38.691Z,4.00
2017-06-05T02:49:06.225Z,4.77
2017-06-05T02:51:33.752Z,4.97
2017-06-05T02:54:01.299Z,4.67
2017-06-05T02:56:28.822Z,4.47
2017-06-05T02:58:57.136Z,5.30
2017-06-05T03:01:25.478Z,4.30
2017-06-05T03:03:53.048Z,4.40
2017-06-05T03:06:20.580Z,4.50
2017-06-05T03:08:48.107Z,4.63
2017-06-05T03:11:15.648Z,5.57
2017-06-05T03:13:43.183Z,4.00
2017-06-05T03:16:11.495Z,5.00
2017-06-05T03:18:39.024Z,4.70
2017-06-05T03:21:07.348Z,4.63
2017-06-05T03:23:34.876Z,3.83
2017-06-05T03:26:02.406Z,4.87
2017-06-05T03:28:29.955Z,4.07
2017-06-05T03:30:57.480Z,4.93
2017-06-05T03:33:25.029Z,4.37
2017-06-05T03:35:52.564Z,5.00
2017-06-05T03:38:20.903Z,4.70
2017-06-05T03:40:48.434Z,6.00
2017-06-05T03:43:15.968Z,6.23
2017-06-05T03:45:44.283Z,5.07
2017-06-05T03:48:11.807Z,4.87
2017-06-05T03:50:39.354Z,4.33
2017-06-05T03:53:06.883Z,3.73
2017-06-05T03:55:34.430Z,4.73
2017-06-05T03:58:01.958Z,4.30
2017-06-05T04:00:29.532Z,4.57
2017-06-05T04:02:57.063Z,5.07
2017-06-05T04:05:24.594Z,4.90
2017-06-05T04:07:52.905Z,6.80
2017-06-05T04:10:20.439Z,6.03
2017-06-05T04:12:48.760Z,5.40
2017-06-05T04:15:16.287Z,5.60
2017-06-05T04:17:43.839Z,6.90
2017-06-05T04:20:11.371Z,5.50
2017-06-05T04:22:39.681Z,5.53
2017-06-05T04:25:07.217Z,5.77
2017-06-05T04:27:34.772Z,6.53
2017-06-05T04:30:03.067Z,5.90
2017-06-05T04:32:30.594Z,6.97
2017-06-05T04:34:58.911Z,6.70
2017-06-05T04:37:26.440Z,6.00
2017-06-05T04:39:54.751Z,4.70
2017-06-05T04:42:22.280Z,4.93
2017-06-05T04:44:49.833Z,3.93
2017-06-05T04:47:17.356Z,3.67
2017-06-05T04:49:44.908Z,3.80
2017-06-05T04:52:12.436Z,3.70
2017-06-05T04:54:39.968Z,3.87
2017-06-05T04:57:07.516Z,7.03
2017-06-05T04:59:35.047Z,6.67
2017-06-05T05:02:02.593Z,7.67
2017-06-05T05:04:30.893Z,6.87
2017-06-05T05:06:58.448Z,7.47
2017-06-05T05:09:25.984Z,8.23
2017-06-05T05:11:54.323Z,8.13
2017-06-05T05:14:21.855Z,5.80
2017-06-05T05:16:49.384Z,4.87
2017-06-05T05:19:17.694Z,5.20
2017-06-05T05:21:45.223Z,6.30
2017-06-05T05:24:13.534Z,6.70
2017-06-05T05:26:41.831Z,8.37
2017-06-05T05:29:09.378Z,8.60
2017-06-05T05:31:36.906Z,9.33
2017-06-05T05:34:04.451Z,6.30
2017-06-05T05:36:31.976Z,6.80
2017-06-05T05:38:59.501Z,6.57
2017-06-05T05:41:27.046Z,5.17
2017-06-05T05:43:54.575Z,4.83
2017-06-05T05:46:22.117Z,5.13
2017-06-05T05:48:49.655Z,6.80
2017-06-05T05:51:17.968Z,6.63
2017-06-05T05:53:45.492Z,7.10
2017-06-05T05:56:13.840Z,6.80
2017-06-05T05:58:41.369Z,7.47
2017-06-05T06:01:08.892Z,7.30
2017-06-05T06:03:37.209Z,6.93
2017-06-05T06:06:04.735Z,5.23
2017-06-05T06:08:33.059Z,6.80
2017-06-05T06:11:00.579Z,6.30
2017-06-05T06:13:28.318Z,5.90
2017-06-05T06:15:55.847Z,7.57
2017-06-05T06:18:23.417Z,7.17
2017-06-05T06:20:50.949Z,6.90
2017-06-05T06:23:18.476Z,6.50
2017-06-05T06:25:46.024Z,8.77
2017-06-05T06:28:13.591Z,8.93
2017-06-05T06:30:41.139Z,8.80
2017-06-05T06:33:09.436Z,7.50
2017-06-05T06:35:36.980Z,7.97
2017-06-05T06:38:04.512Z,7.70
2017-06-05T06:40:32.084Z,7.70
2017-06-05T06:43:00.374Z,6.67
2017-06-05T06:45:28.665Z,7.60
2017-06-05T06:47:56.212Z,8.10
2017-06-05T06:50:23.738Z,6.63
2017-06-05T06:52:51.283Z,7.37
2017-06-05T06:55:18.811Z,6.80
2017-06-05T06:57:46.354Z,6.50
2017-06-05T07:00:13.880Z,5.90
2017-06-05T07:02:41.446Z,5.80
2017-06-05T07:05:08.972Z,6.50
2017-06-05T07:07:36.503Z,5.93
2017-06-05T07:10:04.046Z,5.30
2017-06-05T07:12:31.572Z,6.23
2017-06-05T07:14:59.117Z,5.90
2017-06-05T07:17:27.415Z,6.23
2017-06-05T07:19:54.957Z,7.53
2017-06-05T07:22:23.255Z,6.40
2017-06-05T07:24:50.820Z,6.80
2017-06-05T07:27:18.356Z,7.50
2017-06-05T07:29:46.649Z,6.27
2017-06-05T07:32:14.199Z,6.70
2017-06-05T07:34:41.723Z,5.40
2017-06-05T07:37:09.272Z,7.13
2017-06-05T07:39:37.572Z,6.00
2017-06-05T07:42:05.128Z,7.10
2017-06-05T07:44:32.661Z,7.57
2017-06-05T07:47:01.021Z,6.83
2017-06-05T07:49:28.556Z,7.27
2017-06-05T07:51:56.084Z,7.40
2017-06-05T07:54:23.627Z,7.37
2017-06-05T07:56:51.923Z,7.63
2017-06-05T07:59:19.466Z,8.03
2017-06-05T08:01:47.758Z,7.70
2017-06-05T08:04:15.319Z,8.47
2017-06-05T08:06:42.846Z,8.40
2017-06-05T08:09:10.399Z,8.10
2017-06-05T08:11:37.920Z,7.40
2017-06-05T08:14:06.211Z,8.70
2017-06-05T08:16:33.756Z,8.63
2017-06-05T08:19:02.047Z,8.30
2017-06-05T08:21:29.592Z,6.50
2017-06-05T08:23:57.885Z,6.83
2017-06-05T08:26:25.435Z,8.60
2017-06-05T08:28:53.728Z,7.07
2017-06-05T08:31:21.301Z,6.87
2017-06-05T08:33:48.828Z,7.03
2017-06-05T08:36:16.354Z,8.03
2017-06-05T08:38:43.898Z,8.23
2017-06-05T08:41:11.422Z,7.47
2017-06-05T08:43:38.968Z,7.90
2017-06-05T08:46:06.494Z,6.80
2017-06-05T08:48:34.040Z,7.47
2017-06-05T08:51:01.568Z,7.63
2017-06-05T08:53:29.131Z,7.40
2017-06-05T08:55:56.660Z,7.43
2017-06-05T08:58:24.960Z,6.33
2017-06-05T09:00:52.507Z,7.30
2017-06-05T09:03:20.037Z,6.90
2017-06-05T09:05:47.584Z,5.23
2017-06-05T09:08:15.115Z,6.30
2017-06-05T09:10:43.429Z,7.50
2017-06-05T09:13:10.965Z,8.30
2017-06-05T09:15:38.515Z,8.00
2017-06-05T09:18:06.798Z,8.00
2017-06-05T09:20:34.331Z,7.60
2017-06-05T09:23:01.876Z,7.50
2017-06-05T09:25:29.410Z,7.20
2017-06-05T09:27:56.952Z,6.03
2017-06-05T09:30:25.240Z,8.50
2017-06-05T09:32:52.783Z,5.83
2017-06-05T09:35:21.072Z,7.50
2017-06-05T09:37:49.399Z,7.50
2017-06-05T09:40:16.924Z,7.43
2017-06-05T09:42:44.452Z,6.63
2017-06-05T09:45:12.759Z,6.83
2017-06-05T09:47:40.292Z,7.03
2017-06-05T09:50:07.837Z,6.63
2017-06-05T09:52:35.362Z,8.00
2017-06-05T09:55:02.903Z,6.63
2017-06-05T09:57:30.427Z,8.10
2017-06-05T09:59:58.764Z,6.70
2017-06-05T10:02:26.292Z,8.00
2017-06-05T10:04:53.823Z,6.87
2017-06-05T10:07:21.373Z,7.90
2017-06-05T10:09:48.907Z,6.90
2017-06-05T10:12:16.468Z,9.17
2017-06-05T10:14:43.996Z,7.47
2017-06-05T10:17:11.572Z,8.37
2017-06-05T10:19:39.103Z,7.23
2017-06-05T10:22:06.637Z,7.60
2017-06-05T10:24:34.196Z,7.53
2017-06-05T10:27:02.552Z,7.00
2017-06-05T10:29:30.102Z,8.40
2017-06-05T10:31:57.628Z,7.60
2017-06-05T10:34:25.177Z,6.50
2017-06-05T10:36:52.702Z,7.07
2017-06-05T10:39:21.044Z,7.00
2017-06-05T10:41:48.573Z,7.77
2017-06-05T10:44:16.104Z,7.93
2017-06-05T10:46:43.655Z,8.10
2017-06-05T10:49:11.179Z,7.63
2017-06-05T10:51:38.729Z,7.43
2017-06-05T10:54:06.271Z,9.17
2017-06-05T10:56:33.825Z,9.40
2017-06-05T10:59:01.360Z,8.83
2017-06-05T11:01:29.696Z,8.00
2017-06-05T11:03:57.229Z,7.53
2017-06-05T11:06:24.756Z,7.70
2017-06-05T11:08:52.304Z,7.60
2017-06-05T11:11:19.837Z,7.90
2017-06-05T11:13:48.146Z,7.50
2017-06-05T11:16:15.677Z,8.00
2017-06-05T11:18:43.992Z,6.50
2017-06-05T11:21:11.520Z,6.93
2017-06-05T11:23:39.846Z,6.80
2017-06-05T11:26:07.371Z,6.70
2017-06-05T11:28:34.900Z,7.43
2017-06-05T11:31:02.452Z,8.03
2017-06-05T11:33:29.978Z,7.40
2017-06-05T11:35:57.525Z,8.23
2017-06-05T11:38:25.055Z,9.00
2017-06-05T11:40:53.373Z,8.73
2017-06-05T11:43:20.904Z,10.17
2017-06-05T11:45:49.236Z,10.47
2017-06-05T11:48:16.772Z,10.10
2017-06-05T11:50:44.295Z,9.80
2017-06-05T11:53:12.610Z,12.23
2017-06-05T11:55:40.138Z,10.30
2017-06-05T11:58:08.447Z,9.83
2017-06-05T12:00:35.975Z,9.87
2017-06-05T12:03:03.551Z,9.00
2017-06-05T12:05:31.080Z,7.63
2017-06-05T12:07:59.374Z,6.63
2017-06-05T12:10:27.685Z,7.40
2017-06-05T12:12:55.213Z,7.60
2017-06-05T12:15:22.755Z,5.83
2017-06-05T12:17:51.051Z,5.33
2017-06-05T12:20:18.595Z,5.70
2017-06-05T12:22:46.890Z,6.70
2017-06-05T12:25:14.455Z,6.80
2017-06-05T12:27:41.991Z,5.90
2017-06-05T12:30:09.516Z,6.10
2017-06-05T12:32:37.055Z,6.13
2017-06-05T12:35:04.583Z,6.40
2017-06-05T12:37:32.890Z,5.80
2017-06-05T12:40:00.422Z,5.40
2017-06-05T12:42:27.972Z,5.60
2017-06-05T12:44:56.263Z,6.17
2017-06-05T12:47:23.795Z,5.97
2017-06-05T12:49:51.339Z,6.30
2017-06-05T12:52:18.866Z,6.27
2017-06-05T12:54:46.411Z,5.77
2017-06-05T12:57:13.937Z,4.83
2017-06-05T12:59:41.480Z,4.67
2017-06-05T13:02:09.019Z,5.10
2017-06-05T13:04:36.588Z,4.80
2017-06-05T13:07:04.118Z,4.63
2017-06-05T13:09:31.644Z,4.27
2017-06-05T13:11:59.955Z,5.43
2017-06-05T13:14:27.480Z,4.03
2017-06-05T13:16:55.791Z,5.10
2017-06-05T13:19:23.315Z,5.03
2017-06-05T13:21:51.636Z,4.50
2017-06-05T13:24:19.160Z,5.20
2017-06-05T13:26:47.491Z,4.00
2017-06-05T13:29:15.015Z,4.03
2017-06-05T13:31:42.544Z,4.33
2017-06-05T13:34:10.091Z,4.53
2017-06-05T13:36:37.619Z,4.20
2017-06-05T13:39:05.164Z,4.30
2017-06-05T13:41:32.692Z,4.37
2017-06-05T13:44:01.000Z,3.40
2017-06-05T13:46:28.523Z,3.10
2017-06-05T13:48:56.859Z,3.43
2017-06-05T13:51:24.387Z,3.30
2017-06-05T13:53:51.919Z,3.80
2017-06-05T13:56:20.231Z,2.97
2017-06-05T13:58:47.763Z,2.97
2017-06-05T14:01:15.308Z,3.90
2017-06-05T14:03:42.831Z,2.70
2017-06-05T14:06:10.379Z,3.13
2017-06-05T14:08:37.907Z,2.93
2017-06-05T14:11:05.476Z,2.73
2017-06-05T14:13:33.009Z,3.53
2017-06-05T14:16:00.537Z,3.13
2017-06-05T14:18:28.848Z,2.87
2017-06-05T14:20:56.376Z,3.00
2017-06-05T14:23:24.686Z,2.67
2017-06-05T14:25:52.207Z,2.53
2017-06-05T14:28:20.522Z,2.07
2017-06-05T14:30:48.053Z,2.77
2017-06-05T14:33:15.630Z,2.40
2017-06-05T14:35:43.158Z,2.90
2017-06-05T14:38:11.451Z,3.27
2017-06-05T14:40:38.995Z,3.30
2017-06-05T14:43:07.287Z,3.03
2017-06-05T14:45:34.833Z,2.77
2017-06-05T14:48:02.355Z,2.70
2017-06-05T14:50:30.675Z,2.90
2017-06-05T14:52:58.202Z,2.60
2017-06-05T14:55:26.491Z,2.40
2017-06-05T14:57:54.092Z,2.70
2017-06-05T15:00:21.620Z,2.23
2017-06-05T15:02:49.163Z,2.57
2017-06-05T15:05:16.686Z,1.90
2017-06-05T15:07:44.255Z,2.43
2017-06-05T15:10:12.550Z,2.87
2017-06-05T15:12:40.843Z,2.60
2017-06-05T15:15:08.400Z,2.53
2017-06-05T15:17:35.963Z,2.13
2017-06-05T15:20:03.500Z,2.00
2017-06-05T15:22:31.029Z,2.77
2017-06-05T15:24:58.573Z,2.10
2017-06-05T15:27:26.105Z,2.30
2017-06-05T15:29:54.424Z,2.73
2017-06-05T15:32:21.953Z,2.77
2017-06-05T15:34:49.481Z,2.00
2017-06-05T15:37:17.033Z,2.40
2017-06-05T15:39:44.559Z,2.27
2017-06-05T15:42:12.101Z,2.20
2017-06-05T15:44:39.627Z,1.53
2017-06-05T15:47:07.176Z,2.00
2017-06-05T15:49:34.711Z,1.60
2017-06-05T15:52:02.261Z,1.70
2017-06-05T15:54:29.797Z,1.67
2017-06-05T15:56:57.337Z,1.63
2017-06-05T15:59:25.647Z,1.70
2017-06-05T16:01:53.175Z,2.03
2017-06-05T16:04:21.488Z,1.90
2017-06-05T16:06:49.019Z,1.77
2017-06-05T16:09:17.330Z,1.70
2017-06-05T16:11:44.856Z,2.23
2017-06-05T16:14:13.170Z,2.63
2017-06-05T16:16:40.695Z,1.90
2017-06-05T16:19:08.986Z,2.43
2017-06-05T16:21:36.542Z,2.00
2017-06-05T16:24:04.065Z,2.30
2017-06-05T16:26:31.608Z,2.40
2017-06-05T16:28:59.135Z,2.07
2017-06-05T16:31:26.684Z,2.10
2017-06-05T16:33:54.211Z,2.20
2017-06-05T16:36:21.774Z,2.10
2017-06-05T16:38:50.067Z,2.63
2017-06-05T16:41:18.356Z,2.40
2017-06-05T16:43:45.907Z,2.07
2017-06-05T16:46:13.435Z,2.30
2017-06-05T16:48:40.990Z,2.17
2017-06-05T16:51:08.526Z,2.53
2017-06-05T16:53:36.071Z,2.27
2017-06-05T16:56:03.600Z,2.10
2017-06-05T16:58:31.954Z,2.07
2017-06-05T17:00:59.471Z,1.77
2017-06-05T17:03:26.997Z,2.17
2017-06-05T17:05:55.303Z,1.90
2017-06-05T17:08:22.828Z,2.17
2017-06-05T17:10:51.142Z,1.73
2017-06-05T17:13:18.663Z,2.00
2017-06-05T17:15:46.978Z,1.80
2017-06-05T17:18:14.507Z,2.10
2017-06-05T17:20:42.835Z,2.20
2017-06-05T17:23:10.361Z,1.93
2017-06-05T17:25:37.888Z,2.90
2017-06-05T17:28:05.431Z,2.97
2017-06-05T17:30:32.951Z,2.50
2017-06-05T17:33:00.498Z,2.70
2017-06-05T17:35:28.023Z,2.80
2017-06-05T17:37:55.567Z,2.97
2017-06-05T17:40:23.088Z,2.87
2017-06-05T17:42:50.620Z,2.20
2017-06-05T17:45:18.932Z,3.17
2017-06-05T17:47:46.457Z,2.87
2017-06-05T17:50:14.775Z,2.77
2017-06-05T17:52:42.305Z,3.23
2017-06-05T17:55:09.831Z,3.60
2017-06-05T17:57:37.380Z,3.03
2017-06-05T18:00:04.912Z,3.33
2017-06-05T18:02:32.469Z,2.83
2017-06-05T18:04:59.998Z,3.90
2017-06-05T18:07:28.314Z,3.30
2017-06-05T18:09:55.843Z,2.97
2017-06-05T18:12:23.366Z,3.13
2017-06-05T18:14:50.916Z,3.03
2017-06-05T18:17:18.525Z,3.10
2017-06-05T18:19:46.067Z,3.07
2017-06-05T18:22:13.592Z,2.93
2017-06-05T18:24:41.149Z,3.10
2017-06-05T18:27:08.671Z,2.63
2017-06-05T18:29:36.240Z,2.63
2017-06-05T18:32:03.775Z,2.47
2017-06-05T18:34:31.300Z,2.63
2017-06-05T18:36:58.848Z,3.00
2017-06-05T18:39:26.375Z,2.87
2017-06-05T18:41:54.694Z,2.83
2017-06-05T18:44:22.987Z,2.20
2017-06-05T18:46:51.294Z,2.60
2017-06-05T18:49:18.817Z,2.57
2017-06-05T18:51:46.389Z,2.40
2017-06-05T18:54:13.970Z,3.10
2017-06-05T18:56:41.497Z,2.67
2017-06-05T18:59:09.045Z,2.00
2017-06-05T19:01:36.572Z,2.20
2017-06-05T19:04:08.243Z,1.90
2017-06-05T19:06:36.263Z,2.20
2017-06-05T19:09:04.236Z,2.40
2017-06-05T19:11:31.758Z,3.30
2017-06-05T19:13:59.284Z,3.30
2017-06-05T19:16:26.829Z,3.23
2017-06-05T19:18:54.356Z,3.40
2017-06-05T19:21:21.900Z,3.50
2017-06-05T19:23:49.428Z,2.53
2017-06-05T19:26:16.976Z,4.07
2017-06-05T19:28:44.504Z,3.30
2017-06-05T19:31:12.076Z,3.10
2017-06-05T19:33:39.598Z,3.00
2017-06-05T19:36:07.127Z,3.57
2017-06-05T19:38:34.681Z,3.20
2017-06-05T19:41:02.216Z,3.57
2017-06-05T19:43:29.759Z,3.37
2017-06-05T19:45:57.285Z,3.17
2017-06-05T19:48:25.597Z,3.43
2017-06-05T19:50:53.123Z,3.30
2017-06-05T19:53:21.465Z,3.53
2017-06-05T19:55:48.987Z,3.60
2017-06-05T19:58:16.511Z,3.20
2017-06-05T20:00:44.823Z,2.77
2017-06-05T20:03:12.346Z,2.53
2017-06-05T20:05:40.661Z,2.47
2017-06-05T20:08:08.187Z,2.80
2017-06-05T20:10:35.728Z,2.30
2017-06-05T20:13:03.251Z,3.13
2017-06-05T20:15:31.579Z,3.07
2017-06-05T20:17:59.103Z,2.17
2017-06-05T20:20:26.627Z,2.80
2017-06-05T20:22:54.167Z,3.00
2017-06-05T20:25:21.705Z,2.50
2017-06-05T20:27:49.251Z,3.07
2017-06-05T20:30:17.542Z,3.50
2017-06-05T20:32:45.088Z,3.20
2017-06-05T20:35:12.616Z,2.83
2017-06-05T20:37:40.179Z,2.77
2017-06-05T20:40:07.705Z,3.53
2017-06-05T20:42:35.996Z,3.70
2017-06-05T20:45:04.336Z,2.90
2017-06-05T20:47:31.859Z,2.97
2017-06-05T20:49:59.408Z,2.87
2017-06-05T20:52:26.933Z,3.73
2017-06-05T20:54:54.479Z,3.30
2017-06-05T20:57:22.771Z,4.20
2017-06-05T20:59:50.335Z,3.97
2017-06-05T21:02:17.858Z,2.60
2017-06-05T21:04:45.380Z,3.03
2017-06-05T21:07:12.923Z,2.20
2017-06-05T21:09:40.451Z,2.10
2017-06-05T21:12:07.999Z,2.03
2017-06-05T21:14:35.526Z,1.97
2017-06-05T21:17:03.095Z,2.00
2017-06-05T21:19:30.625Z,2.30
2017-06-05T21:21:58.143Z,2.60
2017-06-05T21:24:25.691Z,2.80
2017-06-05T21:26:53.220Z,2.87
2017-06-05T21:29:20.766Z,3.10
2017-06-05T21:31:49.059Z,3.20
2017-06-05T21:34:16.603Z,2.80
2017-06-05T21:36:44.895Z,2.73
2017-06-05T21:39:12.460Z,2.80
2017-06-05T21:41:39.982Z,2.40
2017-06-05T21:44:07.507Z,2.70
2017-06-05T21:46:35.815Z,2.27
2017-06-05T21:49:03.342Z,2.10
2017-06-05T21:51:31.655Z,1.77
2017-06-05T21:53:59.221Z,1.50
2017-06-05T21:56:26.791Z,1.67
2017-06-05T21:58:54.327Z,2.17
2017-06-05T22:01:21.850Z,1.90
2017-06-05T22:03:49.400Z,1.77
2017-06-05T22:06:16.927Z,2.00
2017-06-05T22:08:44.474Z,1.40
2017-06-05T22:11:11.999Z,1.97
2017-06-05T22:13:39.547Z,2.00
2017-06-05T22:16:07.839Z,1.97
2017-06-05T22:18:35.368Z,1.87
2017-06-05T22:21:03.683Z,1.80
2017-06-05T22:23:31.206Z,1.63
2017-06-05T22:25:59.520Z,2.27
2017-06-05T22:28:27.047Z,2.47
2017-06-05T22:30:55.390Z,1.50
2017-06-05T22:33:22.923Z,1.50
2017-06-05T22:35:50.451Z,1.60
2017-06-05T22:38:18.004Z,2.53
2017-06-05T22:40:46.293Z,2.90
2017-06-05T22:43:13.839Z,2.87
2017-06-05T22:45:41.369Z,2.20
2017-06-05T22:48:09.683Z,2.30
2017-06-05T22:50:37.212Z,1.50
2017-06-05T22:53:05.542Z,2.27
2017-06-05T22:55:33.070Z,2.00
2017-06-05T22:58:00.595Z,2.33
2017-06-05T23:00:28.144Z,1.77
2017-06-05T23:02:55.669Z,2.47
2017-06-05T23:05:23.215Z,1.97
2017-06-05T23:07:50.743Z,2.33
2017-06-05T23:10:18.315Z,1.97
2017-06-05T23:12:45.838Z,1.50
2017-06-05T23:15:13.363Z,2.00
2017-06-05T23:17:41.674Z,1.43
2017-06-05T23:20:09.198Z,1.90
2017-06-05T23:22:37.512Z,1.90
2017-06-05T23:25:05.040Z,2.00
2017-06-05T23:27:33.352Z,1.90
2017-06-05T23:30:00.879Z,1.70
2017-06-05T23:32:28.456Z,1.60
2017-06-05T23:34:56.748Z,1.23
2017-06-05T23:37:24.280Z,1.80
2017-06-05T23:39:51.836Z,1.13
2017-06-05T23:42:19.359Z,1.33
2017-06-05T23:44:46.907Z,1.23
2017-06-05T23:47:14.436Z,1.10
2017-06-05T23:49:41.986Z,1.10
2017-06-05T23:52:10.279Z,1.80
2017-06-05T23:54:37.824Z,1.43
2017-06-05T23:57:06.145Z,2.17
2017-06-05T23:59:33.666Z,2.90
